Time;durP1;ratioP1;P1;durP2;ratioP2;P2;SDS_P1;SDS_P2;PMS_P1;PMS_P2;Temp;Humidity;BMP_temperature;BMP_pressure;BME280_temperature;BME280_humidity;BME280_pressure;Samples;Min_cycle;Max_cycle;Signal;HPM_P1;HPM_P2
2023/03/18 00:01:47;;;;;;;;;;;;;;;-1.33;41.08;101633.53;6036626;23;19918;-90
2023/03/18 00:04:18;;;;;;;;;;;;;;;-1.37;41.16;101632.44;6062149;23;19921;-90
2023/03/18 00:06:47;;;;;;;;;;;;;;;-1.30;41.20;101637.94;6060225;23;19922;-90
2023/03/18 00:10:00;;;;;;;;;;;;;;;-1.30;41.15;101640.50;6059895;23;19917;-92
2023/03/18 00:13:52;;;;;;;;;;;;;;;-1.27;41.38;101643.28;6051745;23;19921;-90
2023/03/18 00:18:13;;;;;;;;;;;;;;;-1.43;41.28;101647.34;6092737;23;19908;-90
2023/03/18 00:20:50;;;;;;;;;;;;;;;-1.37;41.27;101646.88;6067155;23;19921;-89
2023/03/18 00:23:57;;;;;;;;;;;;;;;-1.35;41.55;101644.44;6066266;23;19936;-90
2023/03/18 00:26:36;;;;;;;;;;;;;;;-1.39;41.15;101651.88;6084989;23;19917;-91
2023/03/18 00:29:31;;;;;;;;;;;;;;;-1.40;41.42;101654.31;6039202;23;19925;-90
2023/03/18 00:32:21;;;;;;;;;;;;;;;-1.40;41.52;101657.78;6046038;23;19913;-90
2023/03/18 00:35:00;;;;;;;;;;;;;;;-1.39;41.64;101659.56;6065910;23;19917;-89
2023/03/18 00:37:38;;;;;;;;;;;;;;;-1.41;41.76;101655.09;6097334;23;19934;-90
2023/03/18 00:40:09;;;;;;;;;;;;;;;-1.44;41.51;101660.88;6083508;23;20015;-83
2023/03/18 00:42:46;;;;;;;;;;;;;;;-1.44;42.10;101660.88;6056104;23;19913;-87
2023/03/18 00:45:15;;;;;;;;;;;;;;;-1.50;41.77;101665.56;6079933;23;20105;-87
2023/03/18 00:47:47;;;;;;;;;;;;;;;-1.49;42.01;101661.34;6055782;23;19921;-88
2023/03/18 00:50:13;;;;;;;;;;;;;;;-1.57;41.82;101666.81;6058017;23;20238;-87
2023/03/18 00:52:41;;;;;;;;;;;;;;;-1.56;42.24;101670.25;6081305;23;19921;-87
2023/03/18 00:55:09;;;;;;;;;;;;;;;-1.56;41.95;101670.25;6073595;23;19964;-89
2023/03/18 00:57:40;;;;;;;;;;;;;;;-1.56;42.18;101671.13;6052888;23;19929;-89
2023/03/18 01:00:18;;;;;;;;;;;;;;;-1.62;42.01;101667.25;6053441;23;19958;-88
2023/03/18 01:02:53;;;;;;;;;;;;;;;-1.72;41.93;101673.38;6051569;23;19928;-88
2023/03/18 01:05:26;;;;;;;;;;;;;;;-1.67;42.48;101678.03;6075647;23;19949;-87
2023/03/18 01:07:58;;;;;;;;;;;;;;;-1.77;42.41;101670.53;6076359;23;19917;-89
2023/03/18 01:10:26;;;;;;;;;;;;;;;-1.77;42.27;101679.81;6027292;23;19996;-86
2023/03/18 01:26:01;;;;;;;;;;;;;;;-1.90;42.80;101698.47;6146852;23;19905;-90
2023/03/18 01:28:29;;;;;;;;;;;;;;;-1.86;43.03;101692.81;6067473;23;19936;-90
2023/03/18 01:31:00;;;;;;;;;;;;;;;-1.88;42.74;101692.72;6090282;23;19967;-91
2023/03/18 01:33:59;;;;;;;;;;;;;;;-1.97;42.93;101697.16;6115782;23;19962;-90
2023/03/18 01:37:12;;;;;;;;;;;;;;;-2.03;43.00;101704.34;6137876;23;19916;-90
2023/03/18 01:39:44;;;;;;;;;;;;;;;-1.99;43.31;101703.81;6117135;23;19924;-90
2023/03/18 01:42:26;;;;;;;;;;;;;;;-2.09;43.16;101709.91;6068661;23;19936;-89
2023/03/18 01:45:15;;;;;;;;;;;;;;;-2.07;43.37;101710.91;6126036;23;19940;-90
2023/03/18 01:48:28;;;;;;;;;;;;;;;-2.08;43.07;101710.78;6118584;23;19943;-90
2023/03/18 01:51:23;;;;;;;;;;;;;;;-2.17;43.53;101723.75;6117426;23;19964;-91
2023/03/18 01:54:20;;;;;;;;;;;;;;;-2.14;43.75;101723.97;6141495;23;19991;-91
2023/03/18 01:57:33;;;;;;;;;;;;;;;-2.17;43.48;101734.88;6126449;23;19948;-91
2023/03/18 02:00:15;;;;;;;;;;;;;;;-2.13;43.79;101728.31;6119342;23;19968;-91
2023/03/18 02:03:05;;;;;;;;;;;;;;;-2.12;43.59;101730.09;6119368;23;19920;-89
2023/03/18 02:05:33;;;;;;;;;;;;;;;-2.14;43.44;101734.19;6068035;23;19917;-87
2023/03/18 02:08:21;;;;;;;;;;;;;;;-2.18;43.57;101735.63;6145323;23;19917;-90
2023/03/18 02:11:22;;;;;;;;;;;;;;;-2.13;43.83;101738.50;6124799;23;19944;-90
2023/03/18 02:14:24;;;;;;;;;;;;;;;-2.15;43.87;101748.63;6099922;23;19924;-89
2023/03/18 02:18:53;;;;;;;;;;;;;;;;;;;;;
2023/03/18 02:21:59;;;;;;;;;;;;;;;-2.23;43.59;101754.81;6134296;23;19947;-90
2023/03/18 02:24:51;;;;;;;;;;;;;;;-2.29;43.47;101757.78;6119242;23;19917;-88
2023/03/18 02:40:42;;;;;;;;;;;;;;;-2.25;44.21;101770.78;6170798;23;19927;-90
2023/03/18 02:43:26;;;;;;;;;;;;;;;-2.32;44.18;101767.75;6146699;23;19968;-90
2023/03/18 02:46:38;;;;;;;;;;;;;;;-2.30;44.16;101772.97;6148461;23;19920;-90
2023/03/18 02:49:59;;;;;;;;;;;;;;;-2.36;44.08;101775.09;6074324;23;19956;-90
2023/03/18 02:52:52;;;;;;;;;;;;;;;-2.38;44.00;101777.50;6060370;23;19924;-86
2023/03/18 02:55:26;;;;;;;;;;;;;;;-2.35;44.01;101779.41;6072479;23;19913;-82
2023/03/18 02:57:52;;;;;;;;;;;;;;;-2.33;44.20;101785.50;6042144;23;19921;-80
2023/03/18 03:00:18;;;;;;;;;;;;;;;-2.34;44.35;101781.19;6042328;23;19988;-83
2023/03/18 03:02:44;;;;;;;;;;;;;;;-2.31;44.20;101783.94;6067053;23;19918;-81
2023/03/18 03:05:11;;;;;;;;;;;;;;;-2.29;44.42;101784.94;6042638;23;20235;-84
2023/03/18 03:07:37;;;;;;;;;;;;;;;-2.28;44.28;101792.72;6066335;23;19945;-82
2023/03/18 03:10:07;;;;;;;;;;;;;;;-2.38;44.46;101794.47;6066745;23;19917;-82
2023/03/18 03:12:33;;;;;;;;;;;;;;;-2.35;44.43;101790.47;6067060;23;19921;-82
2023/03/18 03:14:59;;;;;;;;;;;;;;;-2.42;44.39;101793.34;6121086;23;19987;-82
2023/03/18 03:17:28;;;;;;;;;;;;;;;-2.46;44.58;101802.44;6103446;23;20011;-83
2023/03/18 03:19:55;;;;;;;;;;;;;;;-2.59;44.43;101795.50;6127372;23;19921;-83
2023/03/18 03:22:21;;;;;;;;;;;;;;;-2.66;45.03;101797.47;6102170;23;20011;-82
2023/03/18 03:24:47;;;;;;;;;;;;;;;-2.65;44.67;101800.16;6131189;23;19917;-82
2023/03/18 03:27:13;;;;;;;;;;;;;;;-2.64;44.80;101801.91;6131180;23;20462;-84
2023/03/18 03:29:39;;;;;;;;;;;;;;;-2.70;44.82;101800.53;6083888;23;19923;-84
2023/03/18 03:32:08;;;;;;;;;;;;;;;-2.70;45.13;101801.44;6157362;23;19923;-84
2023/03/18 03:34:34;;;;;;;;;;;;;;;-2.66;44.90;101800.91;6130467;23;19916;-82
2023/03/18 03:37:00;;;;;;;;;;;;;;;-2.63;45.27;101797.72;6106824;23;19923;-85
2023/03/18 03:39:26;;;;;;;;;;;;;;;-2.59;45.14;101800.59;6132466;23;19947;-85
2023/03/18 03:41:52;;;;;;;;;;;;;;;-2.58;44.78;101809.16;6108399;23;19981;-82
2023/03/18 03:44:18;;;;;;;;;;;;;;;-2.57;45.20;101814.34;6157190;23;19917;-84
2023/03/18 03:46:50;;;;;;;;;;;;;;;-2.62;45.43;101809.69;6131075;23;19944;-83
2023/03/18 03:49:18;;;;;;;;;;;;;;;-2.54;45.06;101811.16;6132622;23;19960;-83
2023/03/18 03:51:43;;;;;;;;;;;;;;;-2.52;44.86;101811.28;6133313;23;20371;-83
2023/03/18 03:54:11;;;;;;;;;;;;;;;-2.50;44.66;101812.28;6108373;23;20352;-82
2023/03/18 03:56:38;;;;;;;;;;;;;;;-2.49;44.77;101817.50;6132372;23;20297;-82
2023/03/18 03:59:04;;;;;;;;;;;;;;;-2.48;45.58;101818.41;6133158;23;19932;-82
2023/03/18 04:01:49;;;;;;;;;;;;;;;-2.36;45.45;101815.88;6137269;23;19943;-83
2023/03/18 04:04:17;;;;;;;;;;;;;;;-2.31;45.43;101818.00;6133421;23;19916;-83
2023/03/18 04:06:46;;;;;;;;;;;;;;;-2.35;45.55;101818.53;6132907;23;19927;-84
2023/03/18 04:09:12;;;;;;;;;;;;;;;-2.33;45.02;101823.78;6109534;23;19924;-85
2023/03/18 04:11:43;;;;;;;;;;;;;;;-2.28;45.57;101824.97;6085506;23;19916;-82
2023/03/18 04:14:10;;;;;;;;;;;;;;;-2.06;45.73;101816.41;6133576;23;19967;-84
2023/03/18 04:16:37;;;;;;;;;;;;;;;-2.03;44.95;101814.06;6161997;23;20248;-87
2023/03/18 04:19:05;;;;;;;;;;;;;;;-1.87;45.00;101823.75;6088034;23;19921;-84
2023/03/18 04:21:31;;;;;;;;;;;;;;;-1.76;45.49;101825.44;6136084;23;20292;-85
2023/03/18 04:23:57;;;;;;;;;;;;;;;-1.52;45.20;101826.34;6086111;23;19917;-84
2023/03/18 04:26:24;;;;;;;;;;;;;;;-1.25;45.75;101820.56;6082959;23;19982;-84
2023/03/18 04:28:51;;;;;;;;;;;;;;;-0.97;45.43;101818.28;6086371;23;19923;-83
2023/03/18 04:31:19;;;;;;;;;;;;;;;-0.67;44.99;101826.31;6109966;23;19917;-82
2023/03/18 04:33:52;;;;;;;;;;;;;;;-0.39;44.81;101828.22;6085225;23;19936;-84
2023/03/18 04:36:30;;;;;;;;;;;;;;;0.25;43.95;101833.31;6085090;23;19955;-86
2023/03/18 04:38:56;;;;;;;;;;;;;;;0.84;43.38;101826.81;6109727;23;19916;-86
2023/03/18 04:41:26;;;;;;;;;;;;;;;1.14;43.64;101826.97;6109420;23;20003;-86
2023/03/18 04:43:56;;;;;;;;;;;;;;;1.52;43.12;101827.53;6086895;23;20017;-86
2023/03/18 04:46:31;;;;;;;;;;;;;;;1.82;42.37;101826.72;6110832;23;19960;-84
2023/03/18 04:49:00;;;;;;;;;;;;;;;2.08;42.58;101820.53;6107757;23;19917;-86
2023/03/18 04:51:26;;;;;;;;;;;;;;;2.50;42.35;101822.91;6108309;23;19916;-81
2023/03/18 04:54:07;;;;;;;;;;;;;;;3.40;41.35;101823.50;6108493;23;19916;-83
2023/03/18 04:56:53;;;;;;;;;;;;;;;5.26;41.81;101824.78;6133294;23;19923;-85
2023/03/18 04:59:23;;;;;;;;;;;;;;;7.38;39.05;101817.00;6078067;23;19991;-88
2023/03/18 05:01:53;;;;;;;;;;;;;;;8.97;37.06;101817.03;6114392;23;19928;-85
2023/03/18 05:04:32;;;;;;;;;;;;;;;10.25;35.46;101815.31;6112404;23;19916;-89
2023/03/18 05:07:00;;;;;;;;;;;;;;;11.26;34.84;101811.50;6091472;23;19920;-84
2023/03/18 05:09:34;;;;;;;;;;;;;;;12.32;34.00;101814.31;6051236;23;19921;-85
2023/03/18 05:12:05;;;;;;;;;;;;;;;13.37;32.17;101820.97;6105908;23;20363;-83
2023/03/18 05:14:50;;;;;;;;;;;;;;;14.57;32.08;101806.38;6080986;23;20279;-84
2023/03/18 05:17:19;;;;;;;;;;;;;;;15.51;31.44;101816.44;6123036;23;20276;-80
2023/03/18 05:20:05;;;;;;;;;;;;;;;16.70;30.84;101815.59;6125143;23;19916;-82
2023/03/18 05:22:41;;;;;;;;;;;;;;;17.39;29.73;101821.53;6121524;23;19924;-84
2023/03/18 05:25:20;;;;;;;;;;;;;;;18.19;28.59;101817.50;6072120;23;20017;-83
2023/03/18 05:27:47;;;;;;;;;;;;;;;18.67;28.31;101809.13;6071796;23;19923;-83
2023/03/18 05:30:22;;;;;;;;;;;;;;;19.55;27.53;101810.69;6072913;23;19968;-83
2023/03/18 05:32:54;;;;;;;;;;;;;;;20.00;26.59;101812.69;6125334;23;19992;-84
2023/03/18 05:35:33;;;;;;;;;;;;;;;20.55;26.55;101814.38;6099069;23;20270;-85
2023/03/18 05:38:06;;;;;;;;;;;;;;;21.02;25.24;101817.91;6082512;23;20211;-82
2023/03/18 05:40:42;;;;;;;;;;;;;;;21.05;25.68;101815.19;6116608;23;19928;-84
2023/03/18 05:43:27;;;;;;;;;;;;;;;20.59;24.93;101814.28;6122694;23;19916;-86
2023/03/18 05:45:56;;;;;;;;;;;;;;;20.28;25.21;101814.88;6119634;23;19972;-82
2023/03/18 05:48:36;;;;;;;;;;;;;;;19.13;24.85;101815.66;6117258;23;19941;-87
2023/03/18 05:51:11;;;;;;;;;;;;;;;20.97;25.19;101821.53;6092749;23;19927;-80
2023/03/18 05:53:40;;;;;;;;;;;;;;;21.79;23.60;101818.00;6091604;23;19924;-82
2023/03/18 05:56:23;;;;;;;;;;;;;;;22.80;23.12;101820.72;6077889;23;19923;-82
2023/03/18 05:58:59;;;;;;;;;;;;;;;22.85;21.68;101812.63;6123277;23;19917;-83
2023/03/18 06:01:46;;;;;;;;;;;;;;;23.07;22.44;101812.84;6097297;23;19951;-84
2023/03/18 06:04:33;;;;;;;;;;;;;;;24.45;21.86;101808.50;6096618;23;19916;-85
2023/03/18 06:07:02;;;;;;;;;;;;;;;25.53;20.98;101813.41;6015358;23;20291;-83
2023/03/18 06:09:29;;;;;;;;;;;;;;;26.17;20.99;101814.34;6015280;23;19917;-80
2023/03/18 06:11:57;;;;;;;;;;;;;;;25.98;19.75;101806.22;6012765;23;19925;-79
2023/03/18 06:14:28;;;;;;;;;;;;;;;26.24;20.68;101810.50;6036364;23;19922;-79
2023/03/18 06:17:08;;;;;;;;;;;;;;;26.55;18.61;101813.63;6036861;23;19941;-82
2023/03/18 08:41:05;;;;;;;;;;;;;;;36.59;10.68;101805.31;6161143;23;19931;-86
2023/03/18 08:43:31;;;;;;;;;;;;;;;37.64;11.09;101803.13;6105724;23;19948;-84
2023/03/18 08:45:57;;;;;;;;;;;;;;;38.80;11.04;101798.50;6127296;23;19991;-85
2023/03/18 08:48:23;;;;;;;;;;;;;;;39.33;10.91;101806.97;6126110;23;19920;-84
2023/03/18 08:50:49;;;;;;;;;;;;;;;39.06;10.46;101800.53;6129488;23;20399;-85
2023/03/18 08:53:24;;;;;;;;;;;;;;;38.82;10.43;101802.81;6129467;23;19916;-81
2023/03/18 08:55:49;;;;;;;;;;;;;;;37.32;10.54;101803.38;6102466;23;19927;-86
2023/03/18 08:58:28;;;;;;;;;;;;;;;36.47;10.63;101790.16;6082064;23;19916;-84
2023/03/18 09:00:58;;;;;;;;;;;;;;;37.08;10.19;101793.78;6106709;23;19920;-85
2023/03/18 09:03:26;;;;;;;;;;;;;;;37.20;10.87;101791.81;6152758;23;19933;-82
2023/03/18 09:05:54;;;;;;;;;;;;;;;37.36;10.37;101785.81;6103483;23;19979;-89
2023/03/18 09:08:31;;;;;;;;;;;;;;;37.75;10.55;101790.38;6106996;23;19923;-84
2023/03/18 09:10:57;;;;;;;;;;;;;;;36.09;10.04;101792.50;6130001;23;19925;-83
2023/03/18 09:13:38;;;;;;;;;;;;;;;34.74;10.73;101775.72;6107620;23;19920;-84
2023/03/18 09:16:07;;;;;;;;;;;;;;;35.33;10.42;101769.09;6081739;23;19920;-85
2023/03/18 09:18:34;;;;;;;;;;;;;;;34.56;10.84;101768.13;6105393;23;19927;-84
2023/03/18 09:21:00;;;;;;;;;;;;;;;35.13;10.25;101774.34;6159409;23;19916;-87
2023/03/18 09:23:49;;;;;;;;;;;;;;;35.67;10.29;101770.81;6161783;23;19916;-82
2023/03/18 09:26:59;;;;;;;;;;;;;;;35.79;9.84;101767.06;6135231;23;19980;-85
2023/03/18 09:30:05;;;;;;;;;;;;;;;34.40;10.15;101771.16;6108794;23;19998;-85
2023/03/18 09:33:14;;;;;;;;;;;;;;;33.82;10.21;101761.25;6157925;23;20225;-85
2023/03/18 09:36:19;;;;;;;;;;;;;;;34.72;9.54;101762.34;6158639;23;19927;-88
2023/03/18 09:39:26;;;;;;;;;;;;;;;34.15;9.58;101756.06;6106846;23;19999;-86
2023/03/18 09:42:32;;;;;;;;;;;;;;;32.96;10.21;101755.06;6107190;23;20318;-87
2023/03/18 09:45:35;;;;;;;;;;;;;;;32.89;10.51;101757.34;6139891;23;19947;-86
2023/03/18 09:48:43;;;;;;;;;;;;;;;33.39;10.55;101753.75;6166058;23;19999;-89
2023/03/18 09:52:07;;;;;;;;;;;;;;;34.52;9.92;101747.75;6164433;23;19943;-89
2023/03/18 09:55:14;;;;;;;;;;;;;;;33.23;9.44;101749.44;6165855;23;19936;-83
2023/03/18 09:58:21;;;;;;;;;;;;;;;30.61;10.53;101727.81;6131648;23;20019;-77
2023/03/18 10:01:26;;;;;;;;;;;;;;;29.07;10.19;101740.50;6158398;23;19916;-74
2023/03/18 10:04:35;;;;;;;;;;;;;;;29.93;10.37;101737.28;6154102;23;19923;-74
2023/03/18 10:21:17;;;;;;;;;;;;;;;28.39;10.26;101726.31;6124322;23;19917;-75
2023/03/18 10:24:18;;;;;;;;;;;;;;;24.22;11.51;101732.16;6062476;23;19917;-73
2023/03/18 10:40:33;;;;;;;;;;;;;;;15.85;14.01;101732.50;6034514;23;19928;-72
2023/03/18 11:41:54;;;;;;;;;;;;;;;7.93;19.25;101717.78;5918900;24;19919;-74
2023/03/18 11:54:50;;;;;;;;;;;;;;;7.18;19.64;101710.09;5967922;23;19926;-75
2023/03/18 13:24:37;;;;;;;;;;;;;;;5.97;20.92;101647.78;6142896;23;20062;-75
2023/03/18 13:54:56;;;;;;;;;;;;;;;5.54;22.02;101619.41;6058772;23;19992;-74
2023/03/18 15:12:16;;;;;;;;;;;;;;;4.25;22.91;101596.66;6151908;23;20084;-79
2023/03/18 15:29:08;;;;;;;;;;;;;;;3.89;23.38;101593.31;6004030;23;19945;-75
2023/03/18 15:37:54;;;;;;;;;;;;;;;3.80;23.61;101592.00;6032151;23;19955;-75
2023/03/18 15:42:05;;;;;;;;;;;;;;;3.72;23.38;101584.81;6004224;23;19924;-74
2023/03/18 15:50:24;;;;;;;;;;;;;;;3.53;23.91;101585.63;6062243;23;19976;-74
2023/03/18 16:03:05;;;;;;;;;;;;;;;3.21;24.66;101582.31;5840676;24;19930;-74
2023/03/18 16:11:09;;;;;;;;;;;;;;;3.14;24.68;101586.28;5869196;24;19926;-73
2023/03/18 16:28:38;;;;;;;;;;;;;;;3.01;25.35;101586.50;5938643;24;19958;-74
2023/03/18 16:32:58;;;;;;;;;;;;;;;2.88;25.01;101587.56;6005003;23;19929;-74
2023/03/18 19:53:37;;;;;;;;;;;;;;;-0.09;35.27;101546.94;5947225;24;20477;-75
2023/03/18 20:01:54;;;;;;;;;;;;;;;-0.30;35.44;101546.50;5916338;24;19919;-73
2023/03/18 20:06:11;;;;;;;;;;;;;;;-0.30;35.42;101543.94;5919813;24;20322;-72
2023/03/18 20:40:54;;;;;;;;;;;;;;;-0.84;37.05;101507.28;6013387;23;19924;-74
2023/03/18 21:59:44;;;;;;;;;;;;;;;-1.77;38.71;101480.72;5978293;23;20106;-73
2023/03/18 22:08:32;;;;;;;;;;;;;;;-1.80;38.72;101486.50;5979957;24;20014;-74
2023/03/18 22:12:13;;;;;;;;;;;;;;;-1.90;38.63;101487.56;5980697;24;19918;-73
2023/03/18 22:20:25;;;;;;;;;;;;;;;-1.98;38.95;101475.94;6042104;23;19932;-74
2023/03/18 22:24:41;;;;;;;;;;;;;;;-2.04;39.10;101481.50;5979391;24;20371;-72
2023/03/18 22:36:48;;;;;;;;;;;;;;;-1.99;38.59;101471.59;5974758;24;20029;-72
2023/03/18 22:44:51;;;;;;;;;;;;;;;-2.00;38.59;101464.72;5897694;24;19942;-73
2023/03/18 22:49:06;;;;;;;;;;;;;;;-2.03;39.10;101464.50;5898615;24;19966;-72
2023/03/18 22:52:26;;;;;;;;;;;;;;;-2.01;38.98;101473.16;5897688;24;19998;-72
2023/03/18 22:56:39;;;;;;;;;;;;;;;-2.06;38.82;101464.28;5982888;24;19959;-75
2023/03/18 23:01:22;;;;;;;;;;;;;;;-2.05;39.01;101460.97;5925007;24;20002;-71
2023/03/18 23:13:48;;;;;;;;;;;;;;;-1.96;39.01;101443.75;5899656;24;19927;-72
2023/03/18 23:18:09;;;;;;;;;;;;;;;-2.15;38.92;101444.13;5897625;24;19954;-72
2023/03/18 23:22:56;;;;;;;;;;;;;;;-2.17;38.99;101436.41;5981393;24;20280;-73
2023/03/18 23:26:52;;;;;;;;;;;;;;;-2.18;39.02;101439.72;5943429;24;19966;-73
2023/03/18 23:30:40;;;;;;;;;;;;;;;-2.27;39.29;101431.41;5923938;24;19924;-72
2023/03/18 23:34:49;;;;;;;;;;;;;;;-2.36;39.39;101435.91;6066526;23;19948;-72
2023/03/18 23:46:45;;;;;;;;;;;;;;;-2.37;39.77;101414.59;6095786;23;20357;-73
